ESC weather

Escárcega Airport
Escárcega, Campeche, Mexico

Public forecast

Using degrees Celsius for public forecast. Weather courtesy of forecast.io.

METAR (pilot weather report)

Closest report is Ciudad del Carmen International Airport, 61.7 nm (114.3 km) W. Retrieved 2019/09/22 17:42 UTC (0 seconds ago):

MMCE 221742Z 34009KT 7SM FEW025TCU 30/24 A2993 RMK SLP131 57015 951 8/200

TAF (pilot weather forecast)

Forecast is more than 6 hours old.

Closest forecast is Ciudad del Carmen International Airport, 61.7 nm (114.3 km) W. Retrieved 2019/09/22 06:25 UTC (11 hours ago):

TAF MMCE 220518Z 2206/2306 03008KT 6SM HZ SKC FM221000 33010KT 6SM HZ SCT020 TEMPO 2212/2215 6SM -RA SCT015CB FM221800 03012KT P6SM SCT020 FM230300 03005KT 6SM HZ SKC